Time;durP1;ratioP1;P1;durP2;ratioP2;P2;SDS_P1;SDS_P2;PMS_P1;PMS_P2;Temp;Humidity;BMP_temperature;BMP_pressure;BME280_temperature;BME280_humidity;BME280_pressure;Samples;Min_cycle;Max_cycle;Signal;HPM_P1;HPM_P2
2021/04/19 00:00:40;;;;;;;12.63;7.40;;;8.30;99.90;;;;;;5116099;28;20176;-68
2021/04/19 00:03:05;;;;;;;15.17;6.47;;;8.20;99.90;;;;;;5116534;28;20664;-66
2021/04/19 00:05:31;;;;;;;11.50;8.53;;;8.20;99.90;;;;;;5116066;28;20179;-67
2021/04/19 00:07:57;;;;;;;13.50;8.90;;;8.20;99.90;;;;;;5116165;28;20685;-66
2021/04/19 00:10:24;;;;;;;13.23;7.83;;;8.20;99.90;;;;;;5115986;28;20171;-70
2021/04/19 00:12:50;;;;;;;9.30;8.32;;;8.30;99.90;;;;;;5097679;28;20463;-67
2021/04/19 00:15:18;;;;;;;10.77;8.30;;;8.30;99.90;;;;;;5115879;28;20168;-68
2021/04/19 00:17:44;;;;;;;7.75;6.40;;;8.20;99.90;;;;;;5097357;28;20203;-66
2021/04/19 00:20:11;;;;;;;11.05;8.48;;;8.30;99.90;;;;;;5115761;28;20172;-67
2021/04/19 00:22:37;;;;;;;14.07;9.90;;;8.20;99.90;;;;;;5115810;28;20183;-66
2021/04/19 00:25:04;;;;;;;9.57;7.10;;;8.20;99.90;;;;;;5115670;28;20255;-66
2021/04/19 00:27:29;;;;;;;10.50;6.82;;;8.20;99.90;;;;;;5115739;28;20204;-67
2021/04/19 00:29:55;;;;;;;11.50;7.70;;;8.10;99.90;;;;;;5097226;28;20175;-68
2021/04/19 00:32:21;;;;;;;14.77;8.03;;;8.10;99.90;;;;;;5115653;28;20255;-66
2021/04/19 00:34:46;;;;;;;10.27;7.60;;;8.10;99.90;;;;;;5115434;28;20184;-68
2021/04/19 00:37:12;;;;;;;16.77;8.60;;;8.10;99.90;;;;;;5115593;28;20530;-66
2021/04/19 00:39:38;;;;;;;14.90;8.70;;;8.10;99.90;;;;;;5096979;28;20196;-68
2021/04/19 00:42:04;;;;;;;20.17;7.73;;;8.10;99.90;;;;;;5115487;28;20198;-68
2021/04/19 00:44:31;;;;;;;15.02;7.18;;;8.10;99.90;;;;;;5096920;28;20557;-66
2021/04/19 00:46:57;;;;;;;11.30;8.02;;;8.10;99.90;;;;;;5113834;28;20633;-66
2021/04/19 00:49:24;;;;;;;15.73;9.03;;;8.10;99.90;;;;;;5096855;28;20223;-66
2021/04/19 00:51:53;;;;;;;12.20;8.23;;;8.10;99.90;;;;;;5115057;28;20467;-66
2021/04/19 00:54:19;;;;;;;17.80;11.00;;;8.20;99.90;;;;;;5115027;28;20231;-66
2021/04/19 00:56:48;;;;;;;12.82;7.90;;;8.10;99.90;;;;;;5115106;28;20191;-69
2021/04/19 00:59:15;;;;;;;11.93;7.35;;;8.10;99.90;;;;;;5114951;28;20657;-68
2021/04/19 01:01:40;;;;;;;11.95;9.00;;;8.10;99.90;;;;;;5115087;28;20236;-68
2021/04/19 01:04:06;;;;;;;18.97;10.53;;;8.00;99.90;;;;;;5114845;28;20191;-68
2021/04/19 01:06:32;;;;;;;16.77;9.43;;;8.00;99.90;;;;;;5114935;28;20180;-66
2021/04/19 01:08:58;;;;;;;10.77;7.83;;;8.00;99.90;;;;;;5114836;28;20211;-68
2021/04/19 01:11:24;;;;;;;12.53;8.97;;;8.00;99.90;;;;;;5114809;28;20231;-66
2021/04/19 01:13:49;;;;;;;13.20;8.23;;;8.00;99.90;;;;;;5114609;28;20685;-66
2021/04/19 01:16:15;;;;;;;11.00;8.20;;;8.00;99.90;;;;;;5114661;28;20257;-68
2021/04/19 01:18:41;;;;;;;12.43;8.93;;;8.00;99.90;;;;;;5114535;28;20568;-68
2021/04/19 01:21:07;;;;;;;13.00;8.57;;;8.00;99.90;;;;;;5114497;28;20167;-66
2021/04/19 01:23:33;;;;;;;22.40;11.33;;;8.00;99.90;;;;;;5114418;28;20187;-68
2021/04/19 01:25:59;;;;;;;11.80;6.57;;;8.00;99.90;;;;;;5096221;28;20408;-67
2021/04/19 01:28:24;;;;;;;9.57;7.13;;;8.10;99.90;;;;;;5114340;28;20211;-66
2021/04/19 01:30:51;;;;;;;11.40;8.03;;;8.10;99.90;;;;;;5114445;28;20229;-67
2021/04/19 01:33:18;;;;;;;17.23;11.40;;;8.00;99.90;;;;;;5114778;28;20249;-68
2021/04/19 01:35:44;;;;;;;18.30;9.57;;;8.00;99.90;;;;;;5114372;28;20168;-66
2021/04/19 01:38:11;;;;;;;9.50;7.10;;;8.00;99.90;;;;;;5114749;28;20686;-68
2021/04/19 01:40:38;;;;;;;16.27;10.38;;;8.00;99.90;;;;;;5096015;28;20578;-66
2021/04/19 01:43:04;;;;;;;13.93;10.13;;;8.00;99.90;;;;;;5114260;28;20248;-66
2021/04/19 01:45:30;;;;;;;11.80;8.18;;;7.90;99.90;;;;;;5114268;28;20168;-66
2021/04/19 01:47:57;;;;;;;14.27;9.23;;;7.90;99.90;;;;;;5114409;28;20235;-66
2021/04/19 01:50:28;;;;;;;15.75;8.05;;;7.90;99.90;;;;;;5113956;28;20176;-69
2021/04/19 01:52:57;;;;;;;14.43;8.18;;;8.00;99.90;;;;;;5114480;28;20191;-66
2021/04/19 01:55:26;;;;;;;12.38;8.93;;;8.00;99.90;;;;;;5114137;28;20207;-68
2021/04/19 01:58:14;;;;;;;11.48;8.32;;;8.00;99.90;;;;;;5114463;28;20195;-68
2021/04/19 02:00:44;;;;;;;15.95;9.05;;;8.00;99.90;;;;;;5095823;28;20164;-68
2021/04/19 02:03:35;;;;;;;13.18;7.18;;;8.10;99.90;;;;;;5114571;28;20199;-68
2021/04/19 02:06:09;;;;;;;17.10;12.52;;;8.00;99.90;;;;;;5095686;28;20190;-69
2021/04/19 02:08:52;;;;;;;17.45;8.95;;;8.00;99.90;;;;;;5113888;28;20224;-66
2021/04/19 02:11:39;;;;;;;12.95;9.18;;;8.00;99.90;;;;;;5114011;28;20179;-68
2021/04/19 02:14:39;;;;;;;9.65;7.88;;;8.00;99.90;;;;;;5095750;28;20560;-66
2021/04/19 02:17:29;;;;;;;14.57;7.97;;;8.00;99.90;;;;;;5114403;28;20179;-66
2021/04/19 02:20:18;;;;;;;14.50;7.50;;;8.00;99.90;;;;;;5113936;28;20163;-69
2021/04/19 02:22:50;;;;;;;13.57;6.85;;;8.00;99.90;;;;;;5113707;28;20200;-69
2021/04/19 02:25:36;;;;;;;15.85;8.85;;;8.00;99.90;;;;;;5113958;28;20168;-69
2021/04/19 02:28:09;;;;;;;13.77;7.65;;;8.00;99.90;;;;;;5114126;28;20256;-69
2021/04/19 02:30:38;;;;;;;14.63;8.60;;;8.00;99.90;;;;;;5113943;28;20281;-69
2021/04/19 02:33:10;;;;;;;12.05;8.68;;;8.00;99.90;;;;;;5114196;28;20719;-69
2021/04/19 02:35:37;;;;;;;14.90;9.55;;;8.00;99.90;;;;;;5113750;28;20156;-69
2021/04/19 02:38:04;;;;;;;13.57;7.97;;;8.00;99.90;;;;;;5112541;28;20200;-66
2021/04/19 02:40:34;;;;;;;10.27;7.88;;;8.10;99.90;;;;;;5113687;28;20174;-66
2021/04/19 02:43:01;;;;;;;15.10;9.70;;;8.10;99.90;;;;;;5114029;28;20196;-66
2021/04/19 02:45:29;;;;;;;14.20;9.95;;;8.10;99.90;;;;;;5113824;28;20280;-67
2021/04/19 02:47:55;;;;;;;16.95;11.10;;;8.10;99.90;;;;;;5113887;28;20687;-69
2021/04/19 02:50:23;;;;;;;16.77;12.23;;;8.10;99.90;;;;;;5113461;28;20172;-66
2021/04/19 02:52:49;;;;;;;12.57;9.18;;;8.20;99.90;;;;;;5113931;28;20785;-68
2021/04/19 02:55:18;;;;;;;14.55;10.00;;;8.10;99.90;;;;;;5114075;28;20172;-68
2021/04/19 02:58:01;;;;;;;12.93;8.85;;;8.10;99.90;;;;;;5117647;28;20207;-68
2021/04/19 03:00:30;;;;;;;13.40;10.18;;;8.10;99.90;;;;;;5117377;28;20156;-66
2021/04/19 03:02:59;;;;;;;14.57;7.93;;;8.00;99.90;;;;;;5099037;28;20249;-68
2021/04/19 03:05:24;;;;;;;14.73;7.50;;;8.00;99.90;;;;;;5115892;28;20171;-66
2021/04/19 03:07:57;;;;;;;9.27;7.10;;;8.00;99.90;;;;;;5117344;28;20227;-66
2021/04/19 03:10:24;;;;;;;8.10;7.07;;;8.00;99.90;;;;;;5117213;28;20158;-66
2021/04/19 03:12:54;;;;;;;21.50;11.05;;;8.00;99.90;;;;;;5117384;28;20210;-66
2021/04/19 03:15:25;;;;;;;12.90;9.07;;;8.00;99.90;;;;;;5117125;28;20178;-68
2021/04/19 03:17:55;;;;;;;14.13;10.63;;;7.90;99.90;;;;;;5115721;28;20195;-66
2021/04/19 03:20:28;;;;;;;14.13;7.70;;;8.00;99.90;;;;;;5116914;28;20171;-66
2021/04/19 03:22:54;;;;;;;14.45;9.70;;;8.00;99.90;;;;;;5117299;28;20191;-66
2021/04/19 03:25:22;;;;;;;10.98;9.50;;;8.10;99.90;;;;;;5098541;28;20172;-68
2021/04/19 03:27:52;;;;;;;18.33;11.57;;;8.10;99.90;;;;;;5116998;28;20223;-66
2021/04/19 03:30:18;;;;;;;19.50;10.07;;;8.00;99.90;;;;;;5116829;28;20171;-68
2021/04/19 03:32:49;;;;;;;13.52;9.70;;;8.00;99.90;;;;;;5116960;28;20203;-69
2021/04/19 03:35:19;;;;;;;13.25;8.80;;;8.00;99.90;;;;;;5116671;28;20160;-66
2021/04/19 03:37:46;;;;;;;11.57;8.13;;;8.00;99.90;;;;;;5116887;28;20196;-66
2021/04/19 03:40:30;;;;;;;9.80;5.75;;;8.10;99.90;;;;;;5116520;28;20240;-66
2021/04/19 03:42:59;;;;;;;11.23;7.22;;;8.30;99.90;;;;;;5115384;28;20276;-68
2021/04/19 03:45:26;;;;;;;9.80;7.95;;;8.40;99.90;;;;;;5098197;28;20172;-66
2021/04/19 03:47:55;;;;;;;15.25;9.40;;;8.40;99.90;;;;;;5098197;28;20235;-68
2021/04/19 03:50:22;;;;;;;10.27;5.80;;;8.30;99.90;;;;;;5116123;28;20532;-66
2021/04/19 03:52:50;;;;;;;16.55;8.93;;;8.40;99.90;;;;;;5116209;28;20207;-68
2021/04/19 03:55:17;;;;;;;13.55;7.65;;;8.40;99.90;;;;;;5116096;28;20175;-66
2021/04/19 03:57:46;;;;;;;12.38;7.43;;;8.40;99.90;;;;;;5116378;28;20282;-69
2021/04/19 04:00:22;;;;;;;13.00;9.63;;;8.40;99.90;;;;;;5116130;28;20164;-66
2021/04/19 04:02:54;;;;;;;12.73;6.65;;;8.40;99.90;;;;;;5097781;28;20684;-66
2021/04/19 04:05:21;;;;;;;10.02;7.55;;;8.40;99.90;;;;;;5116010;28;20660;-69
2021/04/19 04:07:49;;;;;;;11.25;7.43;;;8.40;99.90;;;;;;5115891;28;20310;-66
2021/04/19 04:10:17;;;;;;;12.48;8.02;;;8.40;99.90;;;;;;5115873;28;20590;-69
2021/04/19 04:12:42;;;;;;;7.80;5.85;;;8.40;99.90;;;;;;5114650;28;20208;-66
2021/04/19 04:15:08;;;;;;;11.07;7.10;;;8.50;99.90;;;;;;5115885;28;20520;-67
2021/04/19 04:17:34;;;;;;;8.40;6.88;;;8.40;99.90;;;;;;5097505;28;20187;-66
2021/04/19 04:20:01;;;;;;;9.70;7.30;;;8.40;99.90;;;;;;5115816;28;20180;-68
2021/04/19 04:22:27;;;;;;;11.23;7.22;;;8.40;99.90;;;;;;5115978;28;20207;-68
2021/04/19 04:24:53;;;;;;;10.43;6.72;;;8.40;99.90;;;;;;5115632;28;20222;-67
2021/04/19 04:27:19;;;;;;;11.18;6.68;;;8.50;99.90;;;;;;5097364;28;20615;-66
2021/04/19 04:29:44;;;;;;;12.80;7.23;;;8.60;99.90;;;;;;5115590;28;20164;-68
2021/04/19 04:32:10;;;;;;;9.90;7.20;;;8.30;99.90;;;;;;5115775;28;20571;-67
2021/04/19 04:34:36;;;;;;;16.07;10.10;;;8.20;99.90;;;;;;5115377;28;20663;-67
2021/04/19 04:37:02;;;;;;;11.43;8.47;;;8.00;99.90;;;;;;5097325;28;20951;-66
2021/04/19 04:39:27;;;;;;;7.97;5.87;;;8.00;99.90;;;;;;5115397;28;20282;-66
2021/04/19 04:41:53;;;;;;;9.60;8.63;;;8.20;99.90;;;;;;5106727;27;20270;-66
2021/04/19 04:44:31;;;;;;;14.33;8.23;;;8.90;99.90;;;;;;5134438;27;20567;-68
2021/04/19 04:47:33;;;;;;;9.45;6.40;;;9.50;99.90;;;;;;5124055;27;20195;-68
2021/04/19 04:50:16;;;;;;;7.63;4.07;;;9.40;99.90;;;;;;5135821;27;20167;-66
2021/04/19 04:53:06;;;;;;;14.85;8.82;;;9.60;99.90;;;;;;5121614;27;20211;-68
2021/04/19 04:55:33;;;;;;;9.63;7.40;;;10.20;99.90;;;;;;5135695;27;20188;-69
2021/04/19 04:58:00;;;;;;;10.45;7.78;;;10.30;99.90;;;;;;5119490;27;20235;-66
2021/04/19 05:00:27;;;;;;;9.93;7.22;;;10.40;99.90;;;;;;5112846;28;20219;-67
2021/04/19 05:02:54;;;;;;;13.40;8.00;;;10.30;99.90;;;;;;5113814;27;20211;-68
2021/04/19 05:05:20;;;;;;;11.73;6.95;;;10.20;99.90;;;;;;5115528;27;20653;-68
2021/04/19 05:07:46;;;;;;;10.47;7.40;;;10.50;99.90;;;;;;5132862;27;20275;-68
2021/04/19 05:10:13;;;;;;;8.60;7.07;;;10.50;99.90;;;;;;5132303;27;20170;-66
2021/04/19 05:12:40;;;;;;;9.52;5.45;;;10.80;99.90;;;;;;5133303;27;20206;-68
2021/04/19 05:15:14;;;;;;;16.48;9.20;;;11.20;99.90;;;;;;5115117;27;20253;-67
2021/04/19 05:17:43;;;;;;;20.50;11.15;;;10.00;99.90;;;;;;5123237;27;20240;-68
2021/04/19 05:20:10;;;;;;;12.95;7.13;;;8.90;99.90;;;;;;5118078;27;20540;-68
2021/04/19 05:22:36;;;;;;;13.50;7.32;;;8.50;99.90;;;;;;5133276;27;20186;-66
2021/04/19 05:25:04;;;;;;;14.70;10.02;;;8.30;99.90;;;;;;5132843;27;20253;-68
2021/04/19 05:27:31;;;;;;;12.38;7.88;;;8.20;99.90;;;;;;5114676;27;20256;-66
2021/04/19 05:29:57;;;;;;;12.23;7.70;;;8.20;99.90;;;;;;5124907;27;20180;-66
2021/04/19 05:32:22;;;;;;;68.63;34.53;;;8.30;99.90;;;;;;5095316;28;20191;-68
2021/04/19 05:34:51;;;;;;;149.37;85.83;;;8.20;99.90;;;;;;5114541;28;20897;-67
2021/04/19 05:37:17;;;;;;;10.93;6.97;;;8.30;99.90;;;;;;5135119;27;20186;-66
2021/04/19 05:39:44;;;;;;;11.68;7.60;;;8.30;99.90;;;;;;5115366;27;20195;-67
2021/04/19 05:42:13;;;;;;;11.55;7.13;;;8.30;99.90;;;;;;5134197;27;20206;-67
2021/04/19 05:44:40;;;;;;;15.02;8.40;;;8.30;99.90;;;;;;5134467;27;20197;-66
2021/04/19 05:47:07;;;;;;;13.82;10.27;;;8.30;99.90;;;;;;5134736;27;20175;-68
2021/04/19 05:49:33;;;;;;;18.25;8.75;;;8.30;99.90;;;;;;5124797;27;20206;-68
2021/04/19 05:52:02;;;;;;;14.70;7.90;;;8.40;99.90;;;;;;5119349;27;20680;-66
2021/04/19 05:54:29;;;;;;;14.15;10.15;;;8.40;99.90;;;;;;5115408;28;20220;-68
2021/04/19 05:57:13;;;;;;;14.93;10.93;;;8.40;99.90;;;;;;5112486;28;20261;-66
2021/04/19 05:59:57;;;;;;;9.65;7.22;;;8.40;99.90;;;;;;5128957;28;20202;-66
2021/04/19 06:02:46;;;;;;;12.63;7.53;;;8.40;99.90;;;;;;5125133;28;20175;-69
2021/04/19 06:05:38;;;;;;;12.98;7.82;;;8.40;99.90;;;;;;5113819;28;20667;-66
2021/04/19 06:08:13;;;;;;;13.55;8.60;;;8.50;99.90;;;;;;5125316;28;20384;-66
2021/04/19 06:10:46;;;;;;;29.70;17.75;;;8.50;99.90;;;;;;5127180;28;20183;-69
2021/04/19 06:13:14;;;;;;;35.80;19.25;;;8.60;99.90;;;;;;5111575;28;20684;-68
2021/04/19 06:15:40;;;;;;;15.15;10.65;;;8.50;99.90;;;;;;5112332;28;20282;-68
2021/04/19 06:18:08;;;;;;;18.20;8.57;;;8.60;99.90;;;;;;5127208;28;20286;-68
2021/04/19 06:20:35;;;;;;;15.55;9.48;;;8.70;99.90;;;;;;5124436;28;20186;-68
2021/04/19 06:23:01;;;;;;;14.95;8.70;;;8.80;99.90;;;;;;5121655;28;20200;-68
2021/04/19 06:25:27;;;;;;;18.30;7.53;;;8.70;99.90;;;;;;5120984;28;20187;-66
2021/04/19 06:28:05;;;;;;;19.55;8.63;;;8.70;99.90;;;;;;5134203;28;20219;-66
2021/04/19 06:30:40;;;;;;;13.70;9.27;;;8.70;99.90;;;;;;5099634;27;20190;-66
2021/04/19 06:33:07;;;;;;;12.98;8.82;;;8.70;99.90;;;;;;5121826;27;20213;-68
2021/04/19 06:35:33;;;;;;;16.88;8.77;;;8.80;99.90;;;;;;5115737;27;20183;-69
2021/04/19 06:37:59;;;;;;;15.47;8.83;;;8.90;99.90;;;;;;5129904;27;20195;-68
2021/04/19 06:40:25;;;;;;;14.70;9.80;;;9.00;99.90;;;;;;5126459;27;20660;-69
2021/04/19 06:42:53;;;;;;;13.13;9.07;;;8.90;99.90;;;;;;5107657;27;20222;-65
2021/04/19 06:45:19;;;;;;;12.90;7.82;;;8.90;99.90;;;;;;5100011;27;20184;-68
2021/04/19 06:47:46;;;;;;;14.77;8.68;;;8.90;99.90;;;;;;5129198;27;20239;-68
2021/04/19 06:50:12;;;;;;;13.63;8.57;;;8.90;99.90;;;;;;5115235;28;20180;-69
2021/04/19 06:52:42;;;;;;;15.18;8.88;;;8.90;99.90;;;;;;5117281;27;20306;-66
2021/04/19 06:55:08;;;;;;;12.85;8.38;;;9.00;99.90;;;;;;5129981;27;20219;-68
2021/04/19 06:57:40;;;;;;;15.45;8.82;;;9.00;99.90;;;;;;5108365;28;20188;-68
2021/04/19 07:00:08;;;;;;;8.55;6.53;;;9.00;99.90;;;;;;5099592;28;20184;-66
2021/04/19 07:02:43;;;;;;;13.05;9.52;;;9.10;99.90;;;;;;5107467;27;20185;-66
2021/04/19 07:05:09;;;;;;;8.50;6.15;;;9.10;99.90;;;;;;5123725;27;20191;-66
2021/04/19 07:07:41;;;;;;;18.08;10.00;;;9.10;99.90;;;;;;5120017;27;20223;-69
2021/04/19 07:10:08;;;;;;;10.68;7.57;;;9.10;99.90;;;;;;5128551;27;20255;-66
2021/04/19 07:12:36;;;;;;;17.52;8.93;;;9.10;99.90;;;;;;5121274;27;20686;-68
2021/04/19 07:15:04;;;;;;;11.35;7.45;;;9.10;99.90;;;;;;5111475;27;20266;-69
2021/04/19 07:17:30;;;;;;;14.45;8.93;;;9.10;99.90;;;;;;5112103;27;20274;-69
2021/04/19 07:19:56;;;;;;;10.93;9.00;;;9.10;99.90;;;;;;5114001;28;20187;-66
2021/04/19 07:22:22;;;;;;;13.27;8.87;;;9.20;99.90;;;;;;5128401;27;20187;-69
2021/04/19 07:24:48;;;;;;;12.90;7.40;;;9.30;99.90;;;;;;5115203;27;20285;-68
2021/04/19 07:27:13;;;;;;;15.77;8.80;;;9.20;99.90;;;;;;5116683;27;20207;-66
2021/04/19 07:29:40;;;;;;;13.20;6.97;;;9.30;99.90;;;;;;5134901;27;21110;-66
2021/04/19 07:32:06;;;;;;;10.23;7.28;;;9.30;99.90;;;;;;5102352;28;20427;-67
2021/04/19 07:34:32;;;;;;;12.93;7.93;;;9.30;99.90;;;;;;5126376;27;20202;-68
2021/04/19 07:37:08;;;;;;;15.30;7.60;;;9.40;99.90;;;;;;5123334;27;20391;-66
2021/04/19 07:39:39;;;;;;;13.23;8.52;;;9.30;99.90;;;;;;5120358;27;20434;-69
2021/04/19 07:42:10;;;;;;;12.23;7.30;;;9.40;99.90;;;;;;5117744;27;20175;-67
2021/04/19 07:44:45;;;;;;;15.30;9.05;;;9.40;99.90;;;;;;5130316;27;20237;-65
2021/04/19 07:47:38;;;;;;;16.95;8.65;;;9.60;99.90;;;;;;5118291;27;20219;-66
2021/04/19 07:50:09;;;;;;;9.63;7.68;;;9.70;99.90;;;;;;5105528;27;20241;-69
2021/04/19 07:52:55;;;;;;;11.23;6.90;;;9.70;99.90;;;;;;5111677;27;20595;-66
2021/04/19 07:55:29;;;;;;;14.50;8.48;;;9.60;99.90;;;;;;5123618;27;20216;-68
2021/04/19 07:57:55;;;;;;;13.02;7.38;;;9.70;99.90;;;;;;5121601;27;20533;-67
2021/04/19 08:00:40;;;;;;;15.10;7.53;;;9.80;99.90;;;;;;5120265;27;20183;-66
2021/04/19 08:03:07;;;;;;;11.25;8.25;;;9.80;99.90;;;;;;5124183;27;20520;-66
2021/04/19 08:05:37;;;;;;;11.25;7.50;;;9.80;99.90;;;;;;5124869;27;20179;-68
2021/04/19 08:08:03;;;;;;;13.00;8.63;;;9.90;99.90;;;;;;5125583;27;20223;-66
2021/04/19 08:10:29;;;;;;;11.55;8.10;;;9.90;99.90;;;;;;5107827;27;20275;-67
2021/04/19 08:13:13;;;;;;;12.18;8.20;;;9.90;99.90;;;;;;5106690;27;20206;-67
2021/04/19 08:15:43;;;;;;;12.05;5.90;;;9.90;99.90;;;;;;5106349;27;20236;-66
2021/04/19 08:18:19;;;;;;;8.60;5.22;;;9.90;99.90;;;;;;5115725;27;20970;-66
2021/04/19 08:20:53;;;;;;;14.45;10.10;;;9.90;99.90;;;;;;5116931;27;20211;-69
2021/04/19 08:23:20;;;;;;;10.68;6.85;;;9.90;99.90;;;;;;5125658;27;20586;-69
2021/04/19 08:25:52;;;;;;;10.75;7.90;;;9.90;99.90;;;;;;5101421;27;20187;-66
2021/04/19 08:28:19;;;;;;;10.60;6.63;;;10.00;99.90;;;;;;5119514;27;20267;-68
2021/04/19 08:30:50;;;;;;;11.25;7.20;;;10.00;99.90;;;;;;5121552;27;20183;-68
2021/04/19 08:33:17;;;;;;;10.68;5.80;;;10.10;99.90;;;;;;5111474;27;20620;-69
2021/04/19 08:35:46;;;;;;;9.32;7.00;;;10.10;99.90;;;;;;5120948;27;20191;-66
2021/04/19 08:38:12;;;;;;;10.88;7.68;;;10.20;99.90;;;;;;5121754;27;20289;-69
2021/04/19 08:40:40;;;;;;;12.25;8.13;;;10.30;99.90;;;;;;5121982;27;20274;-67
2021/04/19 08:43:08;;;;;;;13.90;9.10;;;10.40;99.90;;;;;;5117420;27;20203;-70
2021/04/19 08:45:39;;;;;;;15.20;7.90;;;10.40;99.90;;;;;;5121721;27;20175;-67
2021/04/19 08:48:11;;;;;;;13.73;7.32;;;10.40;99.90;;;;;;5105378;28;20239;-67
2021/04/19 08:50:41;;;;;;;11.85;7.28;;;10.30;99.90;;;;;;5124206;27;20617;-67
2021/04/19 08:53:10;;;;;;;12.07;6.60;;;10.30;99.90;;;;;;5112328;28;20188;-70
2021/04/19 08:55:37;;;;;;;12.75;8.75;;;10.40;99.90;;;;;;5094631;28;20680;-69
2021/04/19 08:58:08;;;;;;;14.00;7.15;;;10.40;99.90;;;;;;5113473;28;20200;-67
2021/04/19 09:00:35;;;;;;;11.82;6.20;;;10.40;99.90;;;;;;5125417;27;20235;-67
2021/04/19 09:03:01;;;;;;;13.93;7.95;;;10.40;99.90;;;;;;5125659;27;20536;-67
2021/04/19 09:05:27;;;;;;;14.47;7.97;;;10.20;99.90;;;;;;5110787;27;20186;-67
2021/04/19 09:08:12;;;;;;;14.33;7.03;;;10.10;99.90;;;;;;5121530;27;21230;-70
2021/04/19 09:10:54;;;;;;;9.48;5.70;;;10.20;99.90;;;;;;5100432;28;20444;-67
2021/04/19 09:13:31;;;;;;;9.77;7.30;;;10.30;99.90;;;;;;5118725;27;20617;-67
2021/04/19 09:16:16;;;;;;;11.48;7.93;;;10.40;99.90;;;;;;5118654;27;20171;-67
2021/04/19 09:18:57;;;;;;;13.15;7.00;;;10.30;99.90;;;;;;5102003;28;20298;-70
2021/04/19 09:21:50;;;;;;;12.45;8.07;;;10.30;99.90;;;;;;5120784;27;20267;-67
2021/04/19 09:24:17;;;;;;;11.57;5.65;;;10.40;99.90;;;;;;5121203;27;20203;-70
2021/04/19 09:26:53;;;;;;;9.25;6.65;;;10.40;99.90;;;;;;5122184;27;20199;-71
2021/04/19 09:29:25;;;;;;;7.65;4.57;;;10.50;99.90;;;;;;5100963;28;20789;-67
2021/04/19 09:32:23;;;;;;;8.13;6.40;;;10.60;99.90;;;;;;5115859;27;20222;-66
2021/04/19 09:34:54;;;;;;;12.10;6.78;;;10.70;99.90;;;;;;5122641;27;20183;-70
2021/04/19 09:37:52;;;;;;;12.07;8.55;;;10.50;99.90;;;;;;5123440;27;20262;-67
2021/04/19 09:40:23;;;;;;;11.25;7.32;;;10.60;99.90;;;;;;5105308;27;21630;-67
2021/04/19 09:42:55;;;;;;;13.80;7.45;;;10.60;99.90;;;;;;5119830;27;20219;-67
2021/04/19 09:45:45;;;;;;;14.27;8.63;;;10.70;99.90;;;;;;5120967;27;20184;-69
2021/04/19 09:48:30;;;;;;;13.90;7.05;;;10.70;99.90;;;;;;5121243;27;20231;-66
2021/04/19 09:51:16;;;;;;;11.90;7.95;;;10.80;99.90;;;;;;5112081;27;20296;-67
2021/04/19 09:53:49;;;;;;;13.20;7.80;;;10.90;99.90;;;;;;5118168;27;20204;-69
2021/04/19 09:56:21;;;;;;;10.82;7.07;;;10.80;99.90;;;;;;5114767;28;20241;-68
2021/04/19 09:58:46;;;;;;;9.20;6.55;;;10.90;99.90;;;;;;5115535;27;20274;-68
2021/04/19 10:01:13;;;;;;;14.40;6.50;;;10.80;99.90;;;;;;5116285;28;20348;-69
2021/04/19 10:03:39;;;;;;;10.77;6.40;;;10.80;99.90;;;;;;5110633;28;20576;-66
2021/04/19 10:06:06;;;;;;;12.45;7.00;;;10.80;99.90;;;;;;5116829;27;20183;-67
2021/04/19 10:08:35;;;;;;;8.35;7.55;;;10.80;99.90;;;;;;5117242;27;20500;-66
2021/04/19 10:11:02;;;;;;;10.68;7.32;;;10.90;99.90;;;;;;5132526;27;20175;-67
2021/04/19 10:13:33;;;;;;;11.57;7.32;;;10.70;99.90;;;;;;5119062;27;20808;-67
2021/04/19 10:16:06;;;;;;;10.02;6.40;;;10.70;99.90;;;;;;5125423;27;20691;-70
2021/04/19 10:18:33;;;;;;;12.13;8.07;;;10.80;99.90;;;;;;5119550;27;20199;-68
2021/04/19 10:20:59;;;;;;;11.68;8.73;;;10.90;99.90;;;;;;5133205;27;20179;-68
2021/04/19 10:23:38;;;;;;;9.18;5.25;;;10.80;99.90;;;;;;5120233;27;20256;-67
2021/04/19 10:26:04;;;;;;;8.23;6.05;;;10.90;99.90;;;;;;5123007;27;20175;-67
2021/04/19 10:28:34;;;;;;;8.67;6.80;;;11.00;99.90;;;;;;5111055;27;20714;-66
2021/04/19 10:31:20;;;;;;;13.48;7.22;;;10.90;99.90;;;;;;5130357;27;20254;-68
2021/04/19 10:33:48;;;;;;;11.57;7.00;;;11.00;99.90;;;;;;5122536;27;20210;-68
2021/04/19 10:36:27;;;;;;;10.32;7.88;;;10.90;99.90;;;;;;5126724;27;20176;-66
2021/04/19 10:38:54;;;;;;;13.30;7.95;;;11.00;99.90;;;;;;5123913;27;20394;-68
2021/04/19 10:41:31;;;;;;;12.02;7.15;;;11.10;99.90;;;;;;5121676;27;20187;-66
2021/04/19 10:43:57;;;;;;;10.93;6.38;;;11.10;99.90;;;;;;5124099;27;20203;-69
2021/04/19 10:46:26;;;;;;;10.13;7.60;;;11.20;99.90;;;;;;5115311;27;20186;-69
2021/04/19 10:48:55;;;;;;;9.25;7.25;;;11.30;99.90;;;;;;5099989;28;20483;-69
2021/04/19 10:51:25;;;;;;;9.88;6.38;;;11.10;99.90;;;;;;5122479;27;20292;-69
2021/04/19 10:53:52;;;;;;;8.25;6.00;;;11.10;99.90;;;;;;5105242;27;20213;-69
2021/04/19 10:56:21;;;;;;;8.75;6.10;;;11.30;99.90;;;;;;5114312;27;21497;-68
2021/04/19 10:58:54;;;;;;;10.45;6.63;;;11.20;99.90;;;;;;5121679;27;20259;-65
2021/04/19 11:01:40;;;;;;;10.07;6.03;;;11.20;99.90;;;;;;5117300;27;20223;-67
2021/04/19 11:04:07;;;;;;;8.95;6.15;;;11.20;99.90;;;;;;5118479;27;20207;-67
2021/04/19 11:06:35;;;;;;;12.07;8.27;;;11.20;99.90;;;;;;5119628;27;20645;-66
2021/04/19 11:09:15;;;;;;;10.93;5.65;;;11.20;99.90;;;;;;5110735;28;20269;-66
2021/04/19 11:11:48;;;;;;;8.43;6.15;;;11.40;99.90;;;;;;5104493;28;20290;-66
2021/04/19 11:14:21;;;;;;;12.27;7.13;;;11.30;99.90;;;;;;5115400;27;20420;-66
2021/04/19 11:16:59;;;;;;;9.43;6.07;;;11.20;99.90;;;;;;5116544;27;20177;-67
2021/04/19 11:19:31;;;;;;;11.75;6.97;;;11.20;99.90;;;;;;5107593;27;20214;-67
2021/04/19 11:21:57;;;;;;;9.07;5.55;;;11.20;99.90;;;;;;5101210;28;20171;-66
2021/04/19 11:24:37;;;;;;;9.00;5.70;;;11.10;99.90;;;;;;5115055;27;20207;-68
2021/04/19 11:27:05;;;;;;;9.43;6.90;;;11.00;99.90;;;;;;5122957;27;20185;-68
2021/04/19 11:29:42;;;;;;;7.40;6.18;;;11.10;99.90;;;;;;5127165;27;20222;-66
2021/04/19 11:32:25;;;;;;;11.63;6.85;;;11.20;99.90;;;;;;5128245;27;20175;-66
2021/04/19 11:34:50;;;;;;;7.88;5.65;;;11.20;99.90;;;;;;5123643;27;20656;-69
2021/04/19 11:37:37;;;;;;;9.07;6.50;;;11.20;99.90;;;;;;5122173;27;20183;-69
2021/04/19 11:40:24;;;;;;;14.10;9.40;;;11.20;99.90;;;;;;5131754;27;20262;-69
2021/04/19 11:42:50;;;;;;;10.80;6.57;;;11.30;99.90;;;;;;5119412;27;20660;-67
2021/04/19 11:45:21;;;;;;;8.30;5.57;;;11.50;99.90;;;;;;5127916;27;20180;-66
2021/04/19 11:47:47;;;;;;;8.18;5.88;;;11.40;99.90;;;;;;5125990;27;20215;-65
2021/04/19 11:50:13;;;;;;;7.72;5.30;;;11.40;99.90;;;;;;5127220;27;20243;-66
2021/04/19 11:52:47;;;;;;;10.40;5.63;;;11.60;99.90;;;;;;5104142;27;20231;-65
2021/04/19 11:55:14;;;;;;;9.83;5.87;;;11.50;99.90;;;;;;5116573;27;20454;-66
2021/04/19 11:57:41;;;;;;;8.93;5.10;;;11.50;99.90;;;;;;5129444;27;20444;-69
2021/04/19 12:00:12;;;;;;;11.23;6.85;;;11.50;99.90;;;;;;5102747;27;20424;-68
2021/04/19 12:02:38;;;;;;;12.17;6.50;;;11.40;99.90;;;;;;5116955;27;20187;-66
2021/04/19 12:05:06;;;;;;;7.40;4.63;;;11.60;99.90;;;;;;5118649;27;20416;-67
2021/04/19 12:07:31;;;;;;;10.18;6.15;;;11.40;99.90;;;;;;5125771;27;20936;-68
2021/04/19 12:09:58;;;;;;;7.87;5.40;;;11.60;99.90;;;;;;5105496;27;20189;-68
2021/04/19 12:12:24;;;;;;;5.57;4.50;;;11.70;99.90;;;;;;5108171;27;20183;-69
2021/04/19 12:14:49;;;;;;;7.77;5.13;;;11.60;99.90;;;;;;5123237;27;20229;-67
2021/04/19 12:17:15;;;;;;;9.90;7.00;;;11.70;99.90;;;;;;5104136;28;20511;-68
2021/04/19 12:19:41;;;;;;;8.77;5.57;;;11.70;99.90;;;;;;5098918;27;20551;-69
2021/04/19 12:22:07;;;;;;;8.90;5.43;;;11.70;99.90;;;;;;5116612;27;20188;-67
2021/04/19 12:24:33;;;;;;;8.98;7.82;;;11.70;99.90;;;;;;5115473;27;20416;-66
2021/04/19 12:26:59;;;;;;;10.83;6.90;;;11.80;99.90;;;;;;5122754;27;20763;-67
2021/04/19 12:29:24;;;;;;;8.17;5.70;;;11.80;99.90;;;;;;5115563;27;20604;-69
2021/04/19 12:31:50;;;;;;;8.03;5.07;;;11.90;99.90;;;;;;5114096;27;20255;-67
2021/04/19 12:34:15;;;;;;;11.07;6.60;;;11.90;99.90;;;;;;5118701;27;20210;-68
2021/04/19 12:36:41;;;;;;;7.67;5.10;;;11.80;99.90;;;;;;5116704;27;20447;-70
2021/04/19 12:39:07;;;;;;;10.70;6.70;;;11.90;99.90;;;;;;5112026;27;20210;-69
2021/04/19 12:41:35;;;;;;;6.20;4.63;;;11.90;99.90;;;;;;5120252;27;20183;-69
2021/04/19 12:44:02;;;;;;;9.77;5.20;;;12.00;99.90;;;;;;5115296;27;20787;-69
2021/04/19 12:46:28;;;;;;;8.80;5.20;;;11.90;99.90;;;;;;5115378;27;20496;-69
2021/04/19 12:48:55;;;;;;;8.83;6.20;;;11.90;99.90;;;;;;5120799;27;20514;-66
2021/04/19 12:51:22;;;;;;;9.50;5.47;;;12.10;99.90;;;;;;5102995;28;20227;-69
2021/04/19 12:53:48;;;;;;;8.60;5.30;;;12.10;99.90;;;;;;5102036;28;20455;-66
2021/04/19 12:56:13;;;;;;;6.03;4.60;;;12.10;99.90;;;;;;5101823;28;20172;-66
2021/04/19 12:58:41;;;;;;;10.00;5.83;;;12.20;99.90;;;;;;5107465;28;20211;-68
2021/04/19 13:01:08;;;;;;;8.48;5.63;;;12.20;99.90;;;;;;5097612;28;20173;-66